sensor_id;sensor_type;location;lat;lon;timestamp;P1;durP1;ratioP1;P2;durP2;ratioP2
75810;SDS011;64449;50.016;19.954;2024-02-21T00:00:34;8.60;;;4.10;;
75810;SDS011;64449;50.016;19.954;2024-02-21T00:02:59;7.40;;;3.20;;
75810;SDS011;64449;50.016;19.954;2024-02-21T00:05:27;6.10;;;3.40;;
75810;SDS011;64449;50.016;19.954;2024-02-21T00:07:53;6.80;;;3.30;;
75810;SDS011;64449;50.016;19.954;2024-02-21T00:10:18;6.00;;;3.20;;
75810;SDS011;64449;50.016;19.954;2024-02-21T00:12:43;10.70;;;3.80;;
75810;SDS011;64449;50.016;19.954;2024-02-21T00:15:09;8.40;;;3.20;;
75810;SDS011;64449;50.016;19.954;2024-02-21T00:17:34;9.00;;;3.60;;
75810;SDS011;64449;50.016;19.954;2024-02-21T00:20:00;7.60;;;3.70;;
75810;SDS011;64449;50.016;19.954;2024-02-21T00:22:25;11.10;;;3.70;;
75810;SDS011;64449;50.016;19.954;2024-02-21T00:24:54;11.00;;;4.40;;
75810;SDS011;64449;50.016;19.954;2024-02-21T00:27:19;7.70;;;3.60;;
75810;SDS011;64449;50.016;19.954;2024-02-21T00:29:48;10.20;;;3.50;;
75810;SDS011;64449;50.016;19.954;2024-02-21T00:32:13;8.50;;;3.50;;
75810;SDS011;64449;50.016;19.954;2024-02-21T00:34:38;10.30;;;4.80;;
75810;SDS011;64449;50.016;19.954;2024-02-21T00:37:04;9.80;;;4.00;;
75810;SDS011;64449;50.016;19.954;2024-02-21T00:39:29;11.20;;;4.40;;
75810;SDS011;64449;50.016;19.954;2024-02-21T00:41:55;9.10;;;4.40;;
75810;SDS011;64449;50.016;19.954;2024-02-21T00:44:20;7.70;;;4.10;;
75810;SDS011;64449;50.016;19.954;2024-02-21T00:46:46;10.70;;;4.20;;
75810;SDS011;64449;50.016;19.954;2024-02-21T00:49:12;9.40;;;4.40;;
75810;SDS011;64449;50.016;19.954;2024-02-21T00:51:38;10.90;;;4.50;;
75810;SDS011;64449;50.016;19.954;2024-02-21T00:54:03;9.10;;;4.10;;
75810;SDS011;64449;50.016;19.954;2024-02-21T00:56:28;8.60;;;4.20;;
75810;SDS011;64449;50.016;19.954;2024-02-21T00:58:55;8.60;;;4.40;;
75810;SDS011;64449;50.016;19.954;2024-02-21T01:01:22;11.70;;;5.00;;
75810;SDS011;64449;50.016;19.954;2024-02-21T01:03:48;12.80;;;4.60;;
75810;SDS011;64449;50.016;19.954;2024-02-21T01:06:14;9.70;;;4.70;;
75810;SDS011;64449;50.016;19.954;2024-02-21T01:08:39;9.90;;;4.70;;
75810;SDS011;64449;50.016;19.954;2024-02-21T01:11:05;11.50;;;5.20;;
75810;SDS011;64449;50.016;19.954;2024-02-21T01:13:30;12.30;;;6.10;;
75810;SDS011;64449;50.016;19.954;2024-02-21T01:15:56;11.60;;;4.90;;
75810;SDS011;64449;50.016;19.954;2024-02-21T01:18:21;12.20;;;4.80;;
75810;SDS011;64449;50.016;19.954;2024-02-21T01:20:46;12.70;;;5.20;;
75810;SDS011;64449;50.016;19.954;2024-02-21T01:23:12;14.20;;;5.70;;
75810;SDS011;64449;50.016;19.954;2024-02-21T01:25:37;14.60;;;5.90;;
75810;SDS011;64449;50.016;19.954;2024-02-21T01:28:03;13.80;;;6.20;;
75810;SDS011;64449;50.016;19.954;2024-02-21T01:30:28;13.60;;;6.30;;
75810;SDS011;64449;50.016;19.954;2024-02-21T01:32:54;11.60;;;5.20;;
75810;SDS011;64449;50.016;19.954;2024-02-21T01:35:19;14.50;;;5.80;;
75810;SDS011;64449;50.016;19.954;2024-02-21T01:37:45;13.70;;;5.60;;
75810;SDS011;64449;50.016;19.954;2024-02-21T01:40:10;14.90;;;6.50;;
75810;SDS011;64449;50.016;19.954;2024-02-21T01:42:40;10.90;;;5.70;;
75810;SDS011;64449;50.016;19.954;2024-02-21T01:45:10;11.60;;;4.60;;
75810;SDS011;64449;50.016;19.954;2024-02-21T01:47:36;11.40;;;5.70;;
75810;SDS011;64449;50.016;19.954;2024-02-21T01:50:02;9.80;;;4.50;;
75810;SDS011;64449;50.016;19.954;2024-02-21T01:52:29;9.50;;;4.60;;
75810;SDS011;64449;50.016;19.954;2024-02-21T01:54:55;9.20;;;4.90;;
75810;SDS011;64449;50.016;19.954;2024-02-21T01:57:22;15.80;;;5.90;;
75810;SDS011;64449;50.016;19.954;2024-02-21T01:59:49;13.00;;;5.50;;
75810;SDS011;64449;50.016;19.954;2024-02-21T02:02:14;9.70;;;5.20;;
75810;SDS011;64449;50.016;19.954;2024-02-21T02:04:41;15.60;;;6.40;;
75810;SDS011;64449;50.016;19.954;2024-02-21T02:07:08;11.90;;;5.00;;
75810;SDS011;64449;50.016;19.954;2024-02-21T02:09:33;13.00;;;5.70;;
75810;SDS011;64449;50.016;19.954;2024-02-21T02:12:00;11.30;;;5.70;;
75810;SDS011;64449;50.016;19.954;2024-02-21T02:14:26;14.00;;;6.10;;
75810;SDS011;64449;50.016;19.954;2024-02-21T02:16:52;12.90;;;5.80;;
75810;SDS011;64449;50.016;19.954;2024-02-21T02:19:17;16.00;;;6.60;;
75810;SDS011;64449;50.016;19.954;2024-02-21T02:21:45;13.20;;;5.90;;
75810;SDS011;64449;50.016;19.954;2024-02-21T02:24:18;13.40;;;6.30;;
75810;SDS011;64449;50.016;19.954;2024-02-21T02:26:45;12.80;;;5.60;;
75810;SDS011;64449;50.016;19.954;2024-02-21T02:29:10;13.70;;;5.60;;
75810;SDS011;64449;50.016;19.954;2024-02-21T02:31:36;13.10;;;5.50;;
75810;SDS011;64449;50.016;19.954;2024-02-21T02:34:03;12.40;;;5.20;;
75810;SDS011;64449;50.016;19.954;2024-02-21T02:36:29;17.10;;;6.20;;
75810;SDS011;64449;50.016;19.954;2024-02-21T02:38:58;14.20;;;5.30;;
75810;SDS011;64449;50.016;19.954;2024-02-21T02:41:24;13.60;;;5.70;;
75810;SDS011;64449;50.016;19.954;2024-02-21T02:43:49;15.10;;;5.70;;
75810;SDS011;64449;50.016;19.954;2024-02-21T02:46:15;13.60;;;5.60;;
75810;SDS011;64449;50.016;19.954;2024-02-21T02:48:40;10.30;;;5.00;;
75810;SDS011;64449;50.016;19.954;2024-02-21T02:51:06;14.30;;;5.40;;
75810;SDS011;64449;50.016;19.954;2024-02-21T02:53:31;10.80;;;5.30;;
75810;SDS011;64449;50.016;19.954;2024-02-21T02:55:57;13.50;;;5.00;;
75810;SDS011;64449;50.016;19.954;2024-02-21T02:58:22;16.40;;;5.20;;
75810;SDS011;64449;50.016;19.954;2024-02-21T03:00:48;10.10;;;4.90;;
75810;SDS011;64449;50.016;19.954;2024-02-21T03:03:13;11.70;;;4.90;;
75810;SDS011;64449;50.016;19.954;2024-02-21T03:05:39;8.20;;;4.30;;
75810;SDS011;64449;50.016;19.954;2024-02-21T03:08:04;11.70;;;4.90;;
75810;SDS011;64449;50.016;19.954;2024-02-21T03:10:32;16.30;;;5.90;;
75810;SDS011;64449;50.016;19.954;2024-02-21T03:12:58;10.00;;;4.50;;
75810;SDS011;64449;50.016;19.954;2024-02-21T03:15:24;9.10;;;3.80;;
75810;SDS011;64449;50.016;19.954;2024-02-21T03:17:49;10.30;;;4.30;;
75810;SDS011;64449;50.016;19.954;2024-02-21T03:20:15;11.40;;;4.30;;
75810;SDS011;64449;50.016;19.954;2024-02-21T03:22:40;9.90;;;4.80;;
75810;SDS011;64449;50.016;19.954;2024-02-21T03:25:07;9.60;;;3.70;;
75810;SDS011;64449;50.016;19.954;2024-02-21T03:27:33;12.20;;;4.50;;
75810;SDS011;64449;50.016;19.954;2024-02-21T03:29:58;8.00;;;3.50;;
75810;SDS011;64449;50.016;19.954;2024-02-21T03:32:24;10.30;;;4.70;;
75810;SDS011;64449;50.016;19.954;2024-02-21T03:34:49;9.60;;;4.30;;
75810;SDS011;64449;50.016;19.954;2024-02-21T03:37:15;11.10;;;4.60;;
75810;SDS011;64449;50.016;19.954;2024-02-21T03:39:41;10.10;;;3.80;;
75810;SDS011;64449;50.016;19.954;2024-02-21T03:42:06;11.30;;;4.10;;
75810;SDS011;64449;50.016;19.954;2024-02-21T03:44:32;8.80;;;3.80;;
75810;SDS011;64449;50.016;19.954;2024-02-21T03:46:58;8.20;;;3.90;;
75810;SDS011;64449;50.016;19.954;2024-02-21T03:49:24;9.60;;;4.00;;
75810;SDS011;64449;50.016;19.954;2024-02-21T03:51:49;9.80;;;4.30;;
75810;SDS011;64449;50.016;19.954;2024-02-21T03:54:15;10.80;;;4.00;;
75810;SDS011;64449;50.016;19.954;2024-02-21T03:56:40;8.40;;;3.60;;
75810;SDS011;64449;50.016;19.954;2024-02-21T03:59:06;11.50;;;3.80;;
75810;SDS011;64449;50.016;19.954;2024-02-21T04:01:33;10.60;;;4.10;;
75810;SDS011;64449;50.016;19.954;2024-02-21T04:03:59;9.60;;;3.70;;
75810;SDS011;64449;50.016;19.954;2024-02-21T04:06:25;10.40;;;4.30;;
75810;SDS011;64449;50.016;19.954;2024-02-21T04:08:50;13.30;;;3.60;;
75810;SDS011;64449;50.016;19.954;2024-02-21T04:11:15;11.80;;;4.20;;
75810;SDS011;64449;50.016;19.954;2024-02-21T04:13:42;11.90;;;3.90;;
75810;SDS011;64449;50.016;19.954;2024-02-21T04:16:08;10.10;;;3.50;;
75810;SDS011;64449;50.016;19.954;2024-02-21T04:18:33;13.80;;;4.70;;
75810;SDS011;64449;50.016;19.954;2024-02-21T04:20:59;14.30;;;4.70;;
75810;SDS011;64449;50.016;19.954;2024-02-21T04:23:24;9.70;;;4.90;;
75810;SDS011;64449;50.016;19.954;2024-02-21T04:25:49;12.10;;;4.60;;
75810;SDS011;64449;50.016;19.954;2024-02-21T04:28:15;13.30;;;4.10;;
75810;SDS011;64449;50.016;19.954;2024-02-21T04:30:40;10.40;;;3.90;;
75810;SDS011;64449;50.016;19.954;2024-02-21T04:33:06;12.70;;;4.50;;
75810;SDS011;64449;50.016;19.954;2024-02-21T04:35:31;12.90;;;4.20;;
75810;SDS011;64449;50.016;19.954;2024-02-21T04:37:57;10.60;;;3.90;;
75810;SDS011;64449;50.016;19.954;2024-02-21T04:40:22;13.80;;;5.80;;
75810;SDS011;64449;50.016;19.954;2024-02-21T04:42:48;7.30;;;3.10;;
75810;SDS011;64449;50.016;19.954;2024-02-21T04:45:13;10.70;;;3.90;;
75810;SDS011;64449;50.016;19.954;2024-02-21T04:47:39;11.60;;;4.20;;
75810;SDS011;64449;50.016;19.954;2024-02-21T04:50:04;8.80;;;3.60;;
75810;SDS011;64449;50.016;19.954;2024-02-21T04:52:31;10.20;;;3.50;;
75810;SDS011;64449;50.016;19.954;2024-02-21T04:54:56;13.60;;;4.40;;
75810;SDS011;64449;50.016;19.954;2024-02-21T04:57:21;7.10;;;2.90;;
75810;SDS011;64449;50.016;19.954;2024-02-21T04:59:47;11.50;;;3.60;;
75810;SDS011;64449;50.016;19.954;2024-02-21T05:02:13;7.20;;;3.00;;
75810;SDS011;64449;50.016;19.954;2024-02-21T05:04:39;9.50;;;3.80;;
75810;SDS011;64449;50.016;19.954;2024-02-21T05:07:06;6.60;;;2.90;;
75810;SDS011;64449;50.016;19.954;2024-02-21T05:09:32;9.40;;;3.40;;
75810;SDS011;64449;50.016;19.954;2024-02-21T05:11:57;8.10;;;2.90;;
75810;SDS011;64449;50.016;19.954;2024-02-21T05:14:26;9.90;;;2.90;;
75810;SDS011;64449;50.016;19.954;2024-02-21T05:16:54;12.30;;;4.00;;
75810;SDS011;64449;50.016;19.954;2024-02-21T05:19:20;6.90;;;2.70;;
75810;SDS011;64449;50.016;19.954;2024-02-21T05:21:46;6.40;;;3.00;;
75810;SDS011;64449;50.016;19.954;2024-02-21T05:24:11;9.30;;;3.30;;
75810;SDS011;64449;50.016;19.954;2024-02-21T05:26:37;7.70;;;3.20;;
75810;SDS011;64449;50.016;19.954;2024-02-21T05:29:02;10.10;;;3.50;;
75810;SDS011;64449;50.016;19.954;2024-02-21T05:31:42;9.60;;;3.00;;
75810;SDS011;64449;50.016;19.954;2024-02-21T05:34:20;11.20;;;3.40;;
75810;SDS011;64449;50.016;19.954;2024-02-21T05:36:47;7.40;;;3.10;;
75810;SDS011;64449;50.016;19.954;2024-02-21T05:39:15;9.60;;;2.90;;
75810;SDS011;64449;50.016;19.954;2024-02-21T05:41:41;11.50;;;3.60;;
75810;SDS011;64449;50.016;19.954;2024-02-21T05:44:07;9.90;;;3.70;;
75810;SDS011;64449;50.016;19.954;2024-02-21T05:46:32;9.40;;;3.10;;
75810;SDS011;64449;50.016;19.954;2024-02-21T05:48:57;9.80;;;3.30;;
75810;SDS011;64449;50.016;19.954;2024-02-21T05:51:23;6.50;;;2.70;;
75810;SDS011;64449;50.016;19.954;2024-02-21T05:53:48;6.00;;;2.70;;
75810;SDS011;64449;50.016;19.954;2024-02-21T05:56:14;4.30;;;2.30;;
75810;SDS011;64449;50.016;19.954;2024-02-21T05:58:40;6.10;;;3.00;;
75810;SDS011;64449;50.016;19.954;2024-02-21T06:01:06;9.30;;;3.50;;
75810;SDS011;64449;50.016;19.954;2024-02-21T06:03:32;10.00;;;2.70;;
75810;SDS011;64449;50.016;19.954;2024-02-21T06:05:59;6.40;;;3.20;;
75810;SDS011;64449;50.016;19.954;2024-02-21T06:08:24;6.70;;;2.80;;
75810;SDS011;64449;50.016;19.954;2024-02-21T06:10:50;9.00;;;3.30;;
75810;SDS011;64449;50.016;19.954;2024-02-21T06:13:19;6.10;;;2.80;;
75810;SDS011;64449;50.016;19.954;2024-02-21T06:15:50;8.50;;;2.60;;
75810;SDS011;64449;50.016;19.954;2024-02-21T06:18:19;9.20;;;3.80;;
75810;SDS011;64449;50.016;19.954;2024-02-21T06:20:45;8.50;;;2.80;;
75810;SDS011;64449;50.016;19.954;2024-02-21T06:23:12;11.50;;;3.40;;
75810;SDS011;64449;50.016;19.954;2024-02-21T06:25:41;7.80;;;2.90;;
75810;SDS011;64449;50.016;19.954;2024-02-21T06:28:07;9.20;;;3.20;;
75810;SDS011;64449;50.016;19.954;2024-02-21T06:30:33;10.60;;;3.30;;
75810;SDS011;64449;50.016;19.954;2024-02-21T06:32:59;8.40;;;2.80;;
75810;SDS011;64449;50.016;19.954;2024-02-21T06:35:25;8.70;;;3.20;;
75810;SDS011;64449;50.016;19.954;2024-02-21T06:37:51;7.70;;;2.90;;
75810;SDS011;64449;50.016;19.954;2024-02-21T06:40:17;8.70;;;4.10;;
75810;SDS011;64449;50.016;19.954;2024-02-21T06:42:43;8.30;;;3.70;;
75810;SDS011;64449;50.016;19.954;2024-02-21T06:45:08;9.10;;;3.20;;
75810;SDS011;64449;50.016;19.954;2024-02-21T06:47:34;6.60;;;3.50;;
75810;SDS011;64449;50.016;19.954;2024-02-21T06:49:59;12.80;;;3.70;;
75810;SDS011;64449;50.016;19.954;2024-02-21T06:52:25;7.40;;;3.30;;
75810;SDS011;64449;50.016;19.954;2024-02-21T06:54:50;12.00;;;5.80;;
75810;SDS011;64449;50.016;19.954;2024-02-21T06:57:16;7.80;;;3.60;;
75810;SDS011;64449;50.016;19.954;2024-02-21T06:59:41;12.50;;;6.20;;
75810;SDS011;64449;50.016;19.954;2024-02-21T07:02:07;8.30;;;4.30;;
75810;SDS011;64449;50.016;19.954;2024-02-21T07:04:33;8.60;;;4.00;;
75810;SDS011;64449;50.016;19.954;2024-02-21T07:06:59;11.00;;;4.10;;
75810;SDS011;64449;50.016;19.954;2024-02-21T07:09:25;10.00;;;3.50;;
75810;SDS011;64449;50.016;19.954;2024-02-21T07:11:50;7.20;;;2.70;;
75810;SDS011;64449;50.016;19.954;2024-02-21T07:14:16;8.10;;;3.30;;
75810;SDS011;64449;50.016;19.954;2024-02-21T07:16:43;8.20;;;2.80;;
75810;SDS011;64449;50.016;19.954;2024-02-21T07:19:08;9.30;;;3.30;;
75810;SDS011;64449;50.016;19.954;2024-02-21T07:21:33;8.10;;;3.10;;
75810;SDS011;64449;50.016;19.954;2024-02-21T07:23:59;7.60;;;3.00;;
75810;SDS011;64449;50.016;19.954;2024-02-21T07:26:24;8.90;;;2.60;;
75810;SDS011;64449;50.016;19.954;2024-02-21T07:28:50;6.30;;;3.10;;
75810;SDS011;64449;50.016;19.954;2024-02-21T07:31:15;8.60;;;2.90;;
75810;SDS011;64449;50.016;19.954;2024-02-21T07:33:41;7.40;;;2.80;;
75810;SDS011;64449;50.016;19.954;2024-02-21T07:36:07;7.10;;;2.30;;
75810;SDS011;64449;50.016;19.954;2024-02-21T07:38:35;6.90;;;3.20;;
75810;SDS011;64449;50.016;19.954;2024-02-21T07:41:01;6.50;;;2.60;;
75810;SDS011;64449;50.016;19.954;2024-02-21T07:43:26;6.50;;;2.40;;
75810;SDS011;64449;50.016;19.954;2024-02-21T07:45:52;6.90;;;2.70;;
75810;SDS011;64449;50.016;19.954;2024-02-21T07:48:21;6.10;;;2.30;;
75810;SDS011;64449;50.016;19.954;2024-02-21T07:50:49;7.40;;;3.10;;
75810;SDS011;64449;50.016;19.954;2024-02-21T07:53:15;7.70;;;2.50;;
75810;SDS011;64449;50.016;19.954;2024-02-21T07:55:41;5.90;;;2.40;;
75810;SDS011;64449;50.016;19.954;2024-02-21T07:58:06;5.90;;;2.60;;
75810;SDS011;64449;50.016;19.954;2024-02-21T08:00:32;7.60;;;2.70;;
75810;SDS011;64449;50.016;19.954;2024-02-21T08:02:58;9.70;;;3.40;;
75810;SDS011;64449;50.016;19.954;2024-02-21T08:05:24;5.30;;;2.30;;
75810;SDS011;64449;50.016;19.954;2024-02-21T08:07:49;7.40;;;2.70;;
75810;SDS011;64449;50.016;19.954;2024-02-21T08:10:15;8.80;;;2.70;;
75810;SDS011;64449;50.016;19.954;2024-02-21T08:12:40;5.60;;;2.20;;
75810;SDS011;64449;50.016;19.954;2024-02-21T08:15:06;5.20;;;1.90;;
75810;SDS011;64449;50.016;19.954;2024-02-21T08:17:37;5.30;;;2.60;;
75810;SDS011;64449;50.016;19.954;2024-02-21T08:20:03;7.70;;;2.20;;
75810;SDS011;64449;50.016;19.954;2024-02-21T08:22:29;6.20;;;3.60;;
75810;SDS011;64449;50.016;19.954;2024-02-21T08:24:55;5.40;;;2.60;;
75810;SDS011;64449;50.016;19.954;2024-02-21T08:27:21;6.90;;;2.10;;
75810;SDS011;64449;50.016;19.954;2024-02-21T08:29:46;7.20;;;2.30;;
75810;SDS011;64449;50.016;19.954;2024-02-21T08:32:12;7.80;;;2.50;;
75810;SDS011;64449;50.016;19.954;2024-02-21T08:34:37;4.50;;;2.40;;
75810;SDS011;64449;50.016;19.954;2024-02-21T08:37:03;8.40;;;3.00;;
75810;SDS011;64449;50.016;19.954;2024-02-21T08:39:28;7.30;;;3.10;;
75810;SDS011;64449;50.016;19.954;2024-02-21T08:41:55;9.70;;;2.80;;
75810;SDS011;64449;50.016;19.954;2024-02-21T08:44:22;5.70;;;2.60;;
75810;SDS011;64449;50.016;19.954;2024-02-21T08:46:51;10.20;;;2.70;;
75810;SDS011;64449;50.016;19.954;2024-02-21T08:49:16;7.10;;;3.40;;
75810;SDS011;64449;50.016;19.954;2024-02-21T08:51:41;4.10;;;2.50;;
75810;SDS011;64449;50.016;19.954;2024-02-21T08:54:08;9.20;;;2.90;;
75810;SDS011;64449;50.016;19.954;2024-02-21T08:56:33;7.70;;;2.30;;
75810;SDS011;64449;50.016;19.954;2024-02-21T08:59:00;7.10;;;2.80;;
75810;SDS011;64449;50.016;19.954;2024-02-21T09:01:26;8.10;;;2.60;;
75810;SDS011;64449;50.016;19.954;2024-02-21T09:03:52;6.50;;;2.20;;
75810;SDS011;64449;50.016;19.954;2024-02-21T09:06:19;7.40;;;2.60;;
75810;SDS011;64449;50.016;19.954;2024-02-21T09:08:47;5.80;;;2.30;;
75810;SDS011;64449;50.016;19.954;2024-02-21T09:11:13;6.60;;;2.60;;
75810;SDS011;64449;50.016;19.954;2024-02-21T09:13:39;10.10;;;3.00;;
75810;SDS011;64449;50.016;19.954;2024-02-21T09:16:04;6.70;;;2.80;;
75810;SDS011;64449;50.016;19.954;2024-02-21T09:18:31;8.40;;;3.00;;
75810;SDS011;64449;50.016;19.954;2024-02-21T09:20:57;7.50;;;2.50;;
75810;SDS011;64449;50.016;19.954;2024-02-21T09:23:25;8.10;;;2.70;;
75810;SDS011;64449;50.016;19.954;2024-02-21T09:25:51;8.70;;;3.10;;
75810;SDS011;64449;50.016;19.954;2024-02-21T09:28:16;11.20;;;2.90;;
75810;SDS011;64449;50.016;19.954;2024-02-21T09:30:42;7.30;;;2.70;;
75810;SDS011;64449;50.016;19.954;2024-02-21T09:33:08;7.60;;;2.60;;
75810;SDS011;64449;50.016;19.954;2024-02-21T09:35:33;6.00;;;3.00;;
75810;SDS011;64449;50.016;19.954;2024-02-21T09:37:59;7.10;;;2.40;;
75810;SDS011;64449;50.016;19.954;2024-02-21T09:40:25;5.20;;;2.10;;
75810;SDS011;64449;50.016;19.954;2024-02-21T09:42:55;6.50;;;2.30;;
75810;SDS011;64449;50.016;19.954;2024-02-21T09:45:33;5.60;;;1.90;;
75810;SDS011;64449;50.016;19.954;2024-02-21T09:50:50;3.60;;;1.40;;
75810;SDS011;64449;50.016;19.954;2024-02-21T09:53:18;5.60;;;1.90;;
75810;SDS011;64449;50.016;19.954;2024-02-21T09:55:45;4.90;;;1.80;;
75810;SDS011;64449;50.016;19.954;2024-02-21T09:58:11;6.50;;;2.50;;
75810;SDS011;64449;50.016;19.954;2024-02-21T10:00:38;5.40;;;2.40;;
75810;SDS011;64449;50.016;19.954;2024-02-21T10:03:03;4.60;;;1.90;;
75810;SDS011;64449;50.016;19.954;2024-02-21T10:05:34;5.60;;;2.00;;
75810;SDS011;64449;50.016;19.954;2024-02-21T10:08:00;3.30;;;2.20;;
75810;SDS011;64449;50.016;19.954;2024-02-21T10:10:26;4.80;;;2.10;;
75810;SDS011;64449;50.016;19.954;2024-02-21T10:12:53;6.00;;;1.60;;
75810;SDS011;64449;50.016;19.954;2024-02-21T10:15:23;6.70;;;1.90;;
75810;SDS011;64449;50.016;19.954;2024-02-21T10:17:59;4.40;;;1.80;;
75810;SDS011;64449;50.016;19.954;2024-02-21T10:20:26;4.00;;;1.40;;
75810;SDS011;64449;50.016;19.954;2024-02-21T10:23:02;5.00;;;1.60;;
75810;SDS011;64449;50.016;19.954;2024-02-21T10:25:32;6.90;;;1.90;;
75810;SDS011;64449;50.016;19.954;2024-02-21T10:27:58;5.40;;;1.70;;
75810;SDS011;64449;50.016;19.954;2024-02-21T10:30:24;5.00;;;1.70;;
75810;SDS011;64449;50.016;19.954;2024-02-21T10:32:50;4.60;;;1.90;;
75810;SDS011;64449;50.016;19.954;2024-02-21T10:35:25;3.60;;;1.60;;
75810;SDS011;64449;50.016;19.954;2024-02-21T10:37:52;3.10;;;1.50;;
75810;SDS011;64449;50.016;19.954;2024-02-21T10:40:22;3.70;;;1.80;;
75810;SDS011;64449;50.016;19.954;2024-02-21T10:42:48;4.20;;;1.80;;
75810;SDS011;64449;50.016;19.954;2024-02-21T10:45:30;4.40;;;1.90;;
75810;SDS011;64449;50.016;19.954;2024-02-21T10:48:01;5.80;;;1.90;;
75810;SDS011;64449;50.016;19.954;2024-02-21T10:50:33;4.60;;;1.90;;
75810;SDS011;64449;50.016;19.954;2024-02-21T10:53:15;4.50;;;1.80;;
75810;SDS011;64449;50.016;19.954;2024-02-21T10:56:11;3.90;;;1.80;;
75810;SDS011;64449;50.016;19.954;2024-02-21T10:58:44;6.00;;;2.20;;
75810;SDS011;64449;50.016;19.954;2024-02-21T11:01:11;6.60;;;2.30;;
75810;SDS011;64449;50.016;19.954;2024-02-21T11:03:41;4.70;;;2.30;;
75810;SDS011;64449;50.016;19.954;2024-02-21T11:06:09;6.10;;;2.70;;
75810;SDS011;64449;50.016;19.954;2024-02-21T11:08:36;4.10;;;2.10;;
75810;SDS011;64449;50.016;19.954;2024-02-21T11:11:01;5.70;;;2.20;;
75810;SDS011;64449;50.016;19.954;2024-02-21T11:13:30;4.50;;;1.80;;
75810;SDS011;64449;50.016;19.954;2024-02-21T11:16:05;4.10;;;2.20;;
75810;SDS011;64449;50.016;19.954;2024-02-21T11:18:35;5.30;;;1.90;;
75810;SDS011;64449;50.016;19.954;2024-02-21T11:21:01;7.90;;;2.10;;
75810;SDS011;64449;50.016;19.954;2024-02-21T11:23:26;4.00;;;1.70;;
75810;SDS011;64449;50.016;19.954;2024-02-21T11:25:52;5.10;;;2.10;;
75810;SDS011;64449;50.016;19.954;2024-02-21T11:28:28;5.50;;;2.20;;
75810;SDS011;64449;50.016;19.954;2024-02-21T11:31:04;4.90;;;2.20;;
75810;SDS011;64449;50.016;19.954;2024-02-21T11:33:32;4.10;;;1.80;;
75810;SDS011;64449;50.016;19.954;2024-02-21T11:35:58;4.40;;;1.70;;
75810;SDS011;64449;50.016;19.954;2024-02-21T11:38:24;3.30;;;1.70;;
75810;SDS011;64449;50.016;19.954;2024-02-21T11:40:50;5.60;;;2.00;;
75810;SDS011;64449;50.016;19.954;2024-02-21T11:43:16;4.40;;;1.60;;
75810;SDS011;64449;50.016;19.954;2024-02-21T11:45:42;5.30;;;2.20;;
75810;SDS011;64449;50.016;19.954;2024-02-21T11:48:07;4.70;;;2.10;;
75810;SDS011;64449;50.016;19.954;2024-02-21T11:50:34;4.90;;;1.90;;
75810;SDS011;64449;50.016;19.954;2024-02-21T11:53:01;5.20;;;2.10;;
75810;SDS011;64449;50.016;19.954;2024-02-21T11:55:28;5.40;;;2.20;;
75810;SDS011;64449;50.016;19.954;2024-02-21T11:57:54;5.70;;;2.20;;
75810;SDS011;64449;50.016;19.954;2024-02-21T12:00:19;5.30;;;2.30;;
75810;SDS011;64449;50.016;19.954;2024-02-21T12:02:46;4.50;;;2.00;;
75810;SDS011;64449;50.016;19.954;2024-02-21T12:05:12;3.10;;;1.90;;
75810;SDS011;64449;50.016;19.954;2024-02-21T12:07:38;3.60;;;2.00;;
75810;SDS011;64449;50.016;19.954;2024-02-21T12:10:08;4.40;;;1.80;;
75810;SDS011;64449;50.016;19.954;2024-02-21T12:12:35;4.70;;;2.10;;
75810;SDS011;64449;50.016;19.954;2024-02-21T12:15:03;6.00;;;2.40;;
75810;SDS011;64449;50.016;19.954;2024-02-21T12:17:30;6.90;;;2.50;;
75810;SDS011;64449;50.016;19.954;2024-02-21T12:19:57;5.60;;;2.60;;
75810;SDS011;64449;50.016;19.954;2024-02-21T12:22:24;8.80;;;3.30;;
75810;SDS011;64449;50.016;19.954;2024-02-21T12:24:50;9.00;;;4.50;;
75810;SDS011;64449;50.016;19.954;2024-02-21T12:27:15;4.50;;;2.40;;
75810;SDS011;64449;50.016;19.954;2024-02-21T12:29:41;7.30;;;3.00;;
75810;SDS011;64449;50.016;19.954;2024-02-21T12:32:06;5.70;;;2.80;;
75810;SDS011;64449;50.016;19.954;2024-02-21T12:34:32;6.50;;;3.40;;
75810;SDS011;64449;50.016;19.954;2024-02-21T12:36:58;6.70;;;3.20;;
75810;SDS011;64449;50.016;19.954;2024-02-21T12:39:24;5.70;;;2.10;;
75810;SDS011;64449;50.016;19.954;2024-02-21T12:41:52;7.20;;;2.50;;
75810;SDS011;64449;50.016;19.954;2024-02-21T12:44:19;7.40;;;2.90;;
75810;SDS011;64449;50.016;19.954;2024-02-21T12:46:44;4.10;;;2.20;;
75810;SDS011;64449;50.016;19.954;2024-02-21T12:49:10;8.00;;;3.20;;
75810;SDS011;64449;50.016;19.954;2024-02-21T12:51:35;6.50;;;2.90;;
75810;SDS011;64449;50.016;19.954;2024-02-21T12:54:01;5.80;;;2.50;;
75810;SDS011;64449;50.016;19.954;2024-02-21T12:56:30;5.10;;;2.00;;
75810;SDS011;64449;50.016;19.954;2024-02-21T12:58:58;5.70;;;2.80;;
75810;SDS011;64449;50.016;19.954;2024-02-21T13:01:23;5.10;;;2.40;;
75810;SDS011;64449;50.016;19.954;2024-02-21T13:03:49;6.50;;;2.60;;
75810;SDS011;64449;50.016;19.954;2024-02-21T13:06:14;6.50;;;2.30;;
75810;SDS011;64449;50.016;19.954;2024-02-21T13:08:40;7.90;;;2.70;;
75810;SDS011;64449;50.016;19.954;2024-02-21T13:11:06;5.20;;;2.20;;
75810;SDS011;64449;50.016;19.954;2024-02-21T13:13:32;5.70;;;3.30;;
75810;SDS011;64449;50.016;19.954;2024-02-21T13:15:58;5.80;;;2.20;;
75810;SDS011;64449;50.016;19.954;2024-02-21T13:18:24;5.20;;;2.70;;
75810;SDS011;64449;50.016;19.954;2024-02-21T13:20:49;5.90;;;2.40;;
75810;SDS011;64449;50.016;19.954;2024-02-21T13:23:15;6.20;;;2.20;;
75810;SDS011;64449;50.016;19.954;2024-02-21T13:25:40;4.10;;;2.20;;
75810;SDS011;64449;50.016;19.954;2024-02-21T13:28:06;7.00;;;2.40;;
75810;SDS011;64449;50.016;19.954;2024-02-21T13:30:32;5.30;;;2.60;;
75810;SDS011;64449;50.016;19.954;2024-02-21T13:32:57;5.30;;;2.70;;
75810;SDS011;64449;50.016;19.954;2024-02-21T13:35:23;5.50;;;3.00;;
75810;SDS011;64449;50.016;19.954;2024-02-21T13:37:48;4.30;;;2.40;;
75810;SDS011;64449;50.016;19.954;2024-02-21T13:40:15;6.70;;;2.40;;
75810;SDS011;64449;50.016;19.954;2024-02-21T13:42:41;7.30;;;2.40;;
75810;SDS011;64449;50.016;19.954;2024-02-21T13:45:06;6.50;;;2.80;;
75810;SDS011;64449;50.016;19.954;2024-02-21T13:47:35;6.40;;;3.10;;
75810;SDS011;64449;50.016;19.954;2024-02-21T13:50:04;5.40;;;2.50;;
75810;SDS011;64449;50.016;19.954;2024-02-21T13:52:34;6.80;;;2.50;;
75810;SDS011;64449;50.016;19.954;2024-02-21T13:54:59;7.00;;;3.40;;
75810;SDS011;64449;50.016;19.954;2024-02-21T13:57:25;5.30;;;2.70;;
75810;SDS011;64449;50.016;19.954;2024-02-21T13:59:50;6.00;;;3.10;;
75810;SDS011;64449;50.016;19.954;2024-02-21T14:02:16;8.20;;;2.60;;
75810;SDS011;64449;50.016;19.954;2024-02-21T14:04:42;8.10;;;2.90;;
75810;SDS011;64449;50.016;19.954;2024-02-21T14:07:07;6.40;;;3.10;;
75810;SDS011;64449;50.016;19.954;2024-02-21T14:09:33;6.10;;;2.50;;
75810;SDS011;64449;50.016;19.954;2024-02-21T14:11:59;5.10;;;2.50;;
75810;SDS011;64449;50.016;19.954;2024-02-21T14:14:24;6.80;;;3.00;;
75810;SDS011;64449;50.016;19.954;2024-02-21T14:16:50;8.90;;;3.10;;
75810;SDS011;64449;50.016;19.954;2024-02-21T14:19:16;7.00;;;3.50;;
75810;SDS011;64449;50.016;19.954;2024-02-21T14:21:42;7.30;;;3.00;;
75810;SDS011;64449;50.016;19.954;2024-02-21T14:24:08;8.40;;;3.00;;
75810;SDS011;64449;50.016;19.954;2024-02-21T14:26:33;5.60;;;2.30;;
75810;SDS011;64449;50.016;19.954;2024-02-21T14:29:00;5.10;;;2.80;;